createdAt,value
2024-04-30T00:00:42.271Z,9.70
2024-04-30T00:02:45.196Z,9.70
2024-04-30T00:04:51.050Z,9.70
2024-04-30T00:06:55.306Z,9.90
2024-04-30T00:09:01.028Z,9.90
2024-04-30T00:11:04.088Z,9.90
2024-04-30T00:13:12.318Z,9.90
2024-04-30T00:15:17.764Z,9.90
2024-04-30T00:17:24.048Z,9.80
2024-04-30T00:19:27.063Z,9.80
2024-04-30T00:21:32.564Z,9.70
2024-04-30T00:23:35.464Z,9.80
2024-04-30T00:25:41.239Z,9.80
2024-04-30T00:27:47.024Z,9.90
2024-04-30T00:29:55.366Z,9.90
2024-04-30T00:31:58.471Z,9.80
2024-04-30T00:34:03.987Z,9.70
2024-04-30T00:36:07.314Z,9.70
2024-04-30T00:38:12.934Z,9.70
2024-04-30T00:40:16.159Z,9.70
2024-04-30T00:42:25.345Z,9.70
2024-04-30T00:44:28.430Z,9.70
2024-04-30T00:46:38.117Z,9.70
2024-04-30T00:48:41.561Z,9.60
2024-04-30T00:50:47.703Z,9.60
2024-04-30T00:52:51.299Z,9.70
2024-04-30T00:54:57.294Z,9.60
2024-04-30T00:57:00.220Z,9.60
2024-04-30T00:59:06.267Z,9.50
2024-04-30T01:01:09.421Z,9.50
2024-04-30T01:03:18.150Z,9.60
2024-04-30T01:05:21.176Z,9.60
2024-04-30T01:07:26.903Z,9.60
2024-04-30T01:09:29.823Z,9.50
2024-04-30T01:11:36.137Z,9.60
2024-04-30T01:13:39.185Z,9.40
2024-04-30T01:15:44.801Z,9.40
2024-04-30T01:17:47.801Z,9.40
2024-04-30T01:19:56.340Z,9.50
2024-04-30T01:21:59.276Z,9.50
2024-04-30T01:24:08.085Z,9.40
2024-04-30T01:26:11.027Z,9.10
2024-04-30T01:30:20.240Z,9.30
2024-04-30T01:32:23.435Z,9.30
2024-04-30T01:34:29.176Z,9.30
2024-04-30T01:36:32.104Z,9.30
2024-04-30T01:38:37.698Z,9.30
2024-04-30T01:40:43.273Z,9.60
2024-04-30T01:42:48.764Z,9.60
2024-04-30T01:44:51.964Z,9.50
2024-04-30T01:46:57.655Z,9.40
2024-04-30T01:49:00.964Z,9.30
2024-04-30T01:51:07.040Z,9.30
2024-04-30T01:53:09.848Z,9.10
2024-04-30T01:55:15.306Z,9.10
2024-04-30T01:57:20.803Z,9.20
2024-04-30T01:59:26.791Z,9.10
2024-04-30T02:01:29.732Z,9.20
2024-04-30T02:03:35.302Z,9.20
2024-04-30T02:05:38.605Z,9.20
2024-04-30T02:07:44.109Z,9.20
2024-04-30T02:09:46.980Z,9.20
2024-04-30T02:11:52.561Z,9.10
2024-04-30T02:13:58.513Z,9.10
2024-04-30T02:16:04.385Z,9.10
2024-04-30T02:18:07.625Z,9.00
2024-04-30T02:20:14.170Z,9.00
2024-04-30T02:22:20.117Z,8.90
2024-04-30T02:24:25.714Z,8.90
2024-04-30T02:26:28.847Z,8.90
2024-04-30T02:28:35.282Z,8.80
2024-04-30T02:30:59.421Z,8.80
2024-04-30T02:33:21.093Z,8.70
2024-04-30T02:35:26.945Z,8.60
2024-04-30T02:37:32.603Z,8.60
2024-04-30T02:39:35.563Z,8.60
2024-04-30T02:41:41.135Z,8.70
2024-04-30T02:43:44.016Z,8.70
2024-04-30T02:45:52.704Z,8.60
2024-04-30T02:47:55.573Z,8.70
2024-04-30T02:50:01.370Z,8.60
2024-04-30T02:52:04.526Z,8.90
2024-04-30T02:54:10.646Z,8.70
2024-04-30T02:56:16.627Z,8.60
2024-04-30T02:58:19.541Z,8.60
2024-04-30T03:00:25.106Z,8.40
2024-04-30T03:02:30.642Z,8.40
2024-04-30T03:04:36.560Z,8.50
2024-04-30T03:06:39.902Z,8.50
2024-04-30T03:08:45.669Z,8.40
2024-04-30T03:10:49.012Z,8.50
2024-04-30T03:12:54.903Z,8.50
2024-04-30T03:14:57.967Z,8.70
2024-04-30T03:17:03.474Z,8.80
2024-04-30T03:19:09.434Z,8.70
2024-04-30T03:21:15.164Z,8.60
2024-04-30T03:23:18.196Z,8.40
2024-04-30T03:25:24.049Z,8.40
2024-04-30T03:27:26.990Z,8.40
2024-04-30T03:29:32.656Z,8.30
2024-04-30T03:31:35.678Z,8.40
2024-04-30T03:33:41.503Z,8.30
2024-04-30T03:35:47.307Z,8.40
2024-04-30T03:37:52.796Z,8.40
2024-04-30T03:39:58.422Z,8.30
2024-04-30T03:42:01.254Z,8.30
2024-04-30T03:44:06.993Z,8.20
2024-04-30T03:46:13.663Z,8.10
2024-04-30T03:48:19.269Z,8.10
2024-04-30T03:50:22.219Z,8.20
2024-04-30T03:52:31.064Z,8.20
2024-04-30T03:54:33.987Z,8.20
2024-04-30T03:56:39.779Z,8.20
2024-04-30T03:58:42.805Z,8.10
2024-04-30T04:00:48.688Z,8.10
2024-04-30T04:02:51.546Z,8.10
2024-04-30T04:04:57.785Z,8.20
2024-04-30T04:07:00.699Z,8.00
2024-04-30T04:09:08.928Z,8.00
2024-04-30T04:11:30.627Z,7.90
2024-04-30T04:13:52.275Z,7.90
2024-04-30T04:15:57.991Z,7.90
2024-04-30T04:18:01.001Z,7.80
2024-04-30T04:20:07.023Z,7.90
2024-04-30T04:22:12.566Z,8.00
2024-04-30T04:24:18.747Z,8.00
2024-04-30T04:26:24.582Z,8.10
2024-04-30T04:28:27.858Z,8.20
2024-04-30T04:30:33.602Z,8.20
2024-04-30T04:32:36.626Z,8.30
2024-04-30T04:34:42.206Z,8.30
2024-04-30T04:36:45.364Z,8.40
2024-04-30T04:38:51.014Z,8.40
2024-04-30T04:40:56.819Z,8.60
2024-04-30T04:43:02.309Z,8.60
2024-04-30T04:45:05.704Z,8.60
2024-04-30T04:47:11.270Z,8.80
2024-04-30T04:49:14.179Z,8.90
2024-04-30T04:51:21.670Z,9.00
2024-04-30T04:53:24.504Z,9.30
2024-04-30T04:55:30.035Z,9.80
2024-04-30T04:57:35.610Z,10.00
2024-04-30T04:59:41.278Z,10.10
2024-04-30T05:01:44.301Z,10.10
2024-04-30T05:03:50.534Z,10.20
2024-04-30T05:05:53.389Z,10.30
2024-04-30T05:07:58.940Z,10.40
2024-04-30T05:10:01.996Z,10.50
2024-04-30T05:12:08.185Z,10.50
2024-04-30T05:14:13.762Z,10.70
2024-04-30T05:16:19.533Z,10.80
2024-04-30T05:18:22.424Z,10.90
2024-04-30T05:20:28.089Z,11.10
2024-04-30T05:22:34.307Z,11.30
2024-04-30T05:24:40.227Z,11.50
2024-04-30T05:26:43.073Z,11.80
2024-04-30T05:28:48.603Z,11.90
2024-04-30T05:30:54.248Z,11.90
2024-04-30T05:32:59.829Z,12.10
2024-04-30T05:35:02.826Z,12.30
2024-04-30T05:37:08.490Z,12.40
2024-04-30T05:39:11.503Z,12.80
2024-04-30T05:41:17.046Z,14.10
2024-04-30T05:43:20.107Z,14.50
2024-04-30T05:45:25.612Z,14.50
2024-04-30T05:47:31.130Z,14.60
2024-04-30T05:49:37.170Z,14.60
2024-04-30T05:51:41.014Z,15.20
2024-04-30T05:53:46.791Z,16.10
2024-04-30T05:55:49.753Z,16.20
2024-04-30T05:57:55.445Z,15.90
2024-04-30T05:59:58.482Z,16.30
2024-04-30T06:02:03.937Z,16.70
2024-04-30T06:04:11.598Z,16.50
2024-04-30T06:06:17.329Z,16.60
2024-04-30T06:08:20.305Z,17.60
2024-04-30T06:12:29.982Z,19.20
2024-04-30T06:16:38.909Z,21.30
2024-04-30T06:18:44.581Z,21.20
2024-04-30T06:20:50.264Z,22.10
2024-04-30T06:29:09.661Z,23.50
2024-04-30T06:31:15.495Z,24.50
2024-04-30T06:33:18.823Z,24.30
2024-04-30T06:39:37.185Z,24.70
2024-04-30T06:41:40.168Z,25.40
2024-04-30T06:43:45.775Z,25.30
2024-04-30T06:45:48.890Z,25.30
2024-04-30T06:47:55.555Z,25.30
2024-04-30T06:49:58.865Z,25.20
2024-04-30T06:52:04.558Z,25.60
2024-04-30T06:54:10.274Z,25.70
2024-04-30T06:56:15.753Z,26.60
2024-04-30T06:58:19.023Z,26.10
2024-04-30T07:00:24.553Z,26.00
2024-04-30T07:02:27.641Z,27.40
2024-04-30T07:04:33.316Z,27.20
2024-04-30T07:06:36.243Z,27.30
2024-04-30T07:08:42.302Z,27.40
2024-04-30T07:10:48.177Z,26.90
2024-04-30T07:12:53.679Z,28.10
2024-04-30T07:14:56.723Z,27.60
2024-04-30T07:17:07.864Z,28.10
2024-04-30T07:19:11.923Z,27.50
2024-04-30T07:21:17.552Z,27.80
2024-04-30T07:23:20.762Z,27.30
2024-04-30T07:25:28.091Z,26.80
2024-04-30T07:27:33.686Z,27.00
2024-04-30T07:29:36.550Z,27.40
2024-04-30T07:31:42.418Z,28.10
2024-04-30T07:33:45.443Z,29.70
2024-04-30T07:35:51.382Z,28.90
2024-04-30T07:37:54.359Z,29.10
2024-04-30T07:39:59.885Z,28.80
2024-04-30T07:42:05.101Z,29.50
2024-04-30T07:44:14.244Z,29.50
2024-04-30T07:46:17.397Z,30.20
2024-04-30T07:48:23.421Z,29.20
2024-04-30T07:50:26.429Z,29.40
2024-04-30T07:52:32.412Z,29.10
2024-04-30T07:54:35.496Z,29.50
2024-04-30T07:56:41.239Z,29.50
2024-04-30T07:58:44.226Z,30.20
2024-04-30T08:00:52.803Z,30.00
2024-04-30T08:02:55.786Z,29.50
2024-04-30T08:05:01.538Z,29.70
2024-04-30T08:07:04.983Z,30.50
2024-04-30T08:09:12.056Z,31.00
2024-04-30T08:11:15.907Z,30.20
2024-04-30T08:13:21.943Z,31.20
2024-04-30T08:15:25.825Z,31.00
2024-04-30T08:17:34.669Z,30.20
2024-04-30T08:19:37.990Z,31.30
2024-04-30T08:21:43.678Z,31.00
2024-04-30T08:23:46.675Z,31.50
2024-04-30T08:25:52.767Z,31.20
2024-04-30T08:27:55.668Z,30.70
2024-04-30T08:30:01.254Z,30.70
2024-04-30T08:32:04.995Z,31.40
2024-04-30T08:34:13.166Z,32.30
2024-04-30T08:36:16.052Z,31.50
2024-04-30T08:38:21.770Z,30.70
2024-04-30T08:40:24.634Z,30.20
2024-04-30T08:42:32.331Z,30.90
2024-04-30T08:44:37.366Z,31.40
2024-04-30T08:46:44.813Z,30.10
2024-04-30T08:48:51.309Z,30.30
2024-04-30T08:51:01.503Z,32.00
2024-04-30T08:53:05.591Z,31.40
2024-04-30T08:55:12.190Z,32.40
2024-04-30T08:57:15.212Z,33.20
2024-04-30T08:59:20.857Z,32.70
2024-04-30T09:01:24.796Z,32.20
2024-04-30T09:03:30.327Z,32.20
2024-04-30T09:05:34.104Z,31.50
2024-04-30T09:07:42.914Z,31.80
2024-04-30T09:09:55.832Z,32.60
2024-04-30T09:12:02.445Z,32.50
2024-04-30T09:14:05.509Z,32.20
2024-04-30T09:16:12.391Z,33.30
2024-04-30T09:18:15.269Z,33.00
2024-04-30T09:20:21.181Z,31.30
2024-04-30T09:22:24.168Z,32.30
2024-04-30T09:24:32.788Z,33.30
2024-04-30T09:26:36.059Z,32.90
2024-04-30T09:28:44.062Z,32.80
2024-04-30T09:30:56.190Z,32.00
2024-04-30T09:33:12.078Z,32.20
2024-04-30T09:35:24.988Z,32.70
2024-04-30T09:37:35.675Z,31.30
2024-04-30T09:39:43.436Z,32.90
2024-04-30T09:41:49.671Z,33.70
2024-04-30T09:43:52.880Z,33.30
2024-04-30T09:45:59.999Z,32.50
2024-04-30T09:48:09.340Z,32.70
2024-04-30T09:50:16.483Z,32.80
2024-04-30T09:52:21.893Z,33.10
2024-04-30T09:54:28.878Z,32.40
2024-04-30T09:56:34.550Z,32.90
2024-04-30T09:58:41.999Z,33.10
2024-04-30T10:00:44.977Z,32.50
2024-04-30T10:02:53.657Z,31.60
2024-04-30T10:04:58.962Z,32.40
2024-04-30T10:07:07.241Z,32.00
2024-04-30T10:09:10.447Z,32.70
2024-04-30T10:11:16.141Z,32.00
2024-04-30T10:13:24.129Z,31.90
2024-04-30T10:15:34.675Z,32.10
2024-04-30T10:17:41.681Z,32.90
2024-04-30T10:19:48.572Z,33.10
2024-04-30T10:21:51.566Z,33.60
2024-04-30T10:23:57.261Z,32.00
2024-04-30T10:26:04.469Z,32.70
2024-04-30T10:28:15.234Z,32.60
2024-04-30T10:30:26.151Z,32.10
2024-04-30T10:32:31.796Z,32.30
2024-04-30T10:34:34.738Z,32.40
2024-04-30T10:36:40.442Z,31.50
2024-04-30T10:38:43.731Z,30.60
2024-04-30T10:40:49.619Z,32.00
2024-04-30T10:42:52.687Z,31.40
2024-04-30T10:44:58.818Z,32.00
2024-04-30T10:47:04.656Z,32.50
2024-04-30T10:49:11.836Z,32.90
2024-04-30T10:51:14.744Z,32.20
2024-04-30T10:53:23.016Z,31.60
2024-04-30T10:55:26.123Z,31.70
2024-04-30T10:57:35.172Z,32.70
2024-04-30T10:59:38.134Z,31.50
2024-04-30T11:01:44.112Z,30.60
2024-04-30T11:03:51.677Z,30.80
2024-04-30T11:06:03.678Z,30.70
2024-04-30T11:08:08.608Z,31.20
2024-04-30T11:10:14.305Z,31.70
2024-04-30T11:12:17.936Z,32.20
2024-04-30T11:14:24.430Z,31.90
2024-04-30T11:16:27.550Z,31.80
2024-04-30T11:18:33.677Z,30.60
2024-04-30T11:20:39.598Z,31.20
2024-04-30T11:22:45.458Z,30.50
2024-04-30T11:24:48.607Z,31.10
2024-04-30T11:26:54.306Z,31.60
2024-04-30T11:29:09.387Z,31.80
2024-04-30T11:31:25.220Z,32.30
2024-04-30T11:33:30.927Z,31.10
2024-04-30T11:35:38.454Z,31.30
2024-04-30T11:37:44.206Z,31.10
2024-04-30T11:39:51.102Z,31.20
2024-04-30T11:42:01.739Z,30.80
2024-04-30T11:44:18.675Z,30.70
2024-04-30T11:46:21.593Z,31.20
2024-04-30T11:48:30.176Z,31.70
2024-04-30T11:50:33.480Z,31.70
2024-04-30T11:52:40.589Z,31.40
2024-04-30T11:54:46.569Z,31.60
2024-04-30T11:56:52.595Z,30.10
2024-04-30T11:58:55.713Z,30.10
2024-04-30T12:01:01.939Z,30.10
2024-04-30T12:03:05.083Z,30.80
2024-04-30T12:05:11.188Z,30.40
2024-04-30T12:07:14.141Z,30.20
2024-04-30T12:09:25.257Z,30.20
2024-04-30T12:11:30.932Z,30.30
2024-04-30T12:13:38.801Z,30.40
2024-04-30T12:15:41.702Z,30.10
2024-04-30T12:17:47.386Z,30.20
2024-04-30T12:19:50.515Z,30.20
2024-04-30T12:21:56.401Z,29.50
2024-04-30T12:23:59.552Z,29.30
2024-04-30T12:26:05.521Z,29.30
2024-04-30T12:28:11.136Z,28.90
2024-04-30T12:30:16.772Z,28.60
2024-04-30T12:32:20.008Z,29.30
2024-04-30T12:34:25.690Z,30.00
2024-04-30T12:36:30.152Z,29.80
2024-04-30T12:38:36.642Z,29.00
2024-04-30T12:40:40.363Z,29.10
2024-04-30T12:42:46.028Z,29.20
2024-04-30T12:44:51.651Z,29.30
2024-04-30T12:46:57.428Z,28.20
2024-04-30T12:49:00.518Z,27.60
2024-04-30T12:51:06.239Z,28.20
2024-04-30T12:53:09.304Z,27.70
2024-04-30T12:55:15.178Z,28.30
2024-04-30T12:57:18.155Z,27.60
2024-04-30T12:59:23.709Z,28.00
2024-04-30T13:01:29.744Z,28.00
2024-04-30T13:03:35.600Z,28.30
2024-04-30T13:05:41.306Z,28.10
2024-04-30T13:07:47.004Z,28.10
2024-04-30T13:09:50.192Z,28.20
2024-04-30T13:11:55.885Z,28.40
2024-04-30T13:13:59.350Z,28.20
2024-04-30T13:16:05.057Z,28.70
2024-04-30T13:18:10.798Z,28.70
2024-04-30T13:20:16.782Z,28.30
2024-04-30T13:22:20.040Z,28.00
2024-04-30T13:24:26.224Z,27.50
2024-04-30T13:26:29.558Z,27.50
2024-04-30T13:28:35.986Z,27.80
2024-04-30T13:30:41.706Z,27.60
2024-04-30T13:32:47.415Z,27.00
2024-04-30T13:34:53.538Z,27.10
2024-04-30T13:36:59.734Z,27.50
2024-04-30T13:39:03.052Z,27.50
2024-04-30T13:41:10.929Z,27.20
2024-04-30T13:43:13.933Z,26.90
2024-04-30T13:45:22.008Z,26.40
2024-04-30T13:47:25.050Z,26.30
2024-04-30T13:49:30.809Z,26.50
2024-04-30T13:51:36.686Z,26.90
2024-04-30T13:53:42.999Z,26.50
2024-04-30T13:55:46.013Z,26.30
2024-04-30T13:57:51.923Z,26.30
2024-04-30T13:59:54.808Z,26.60
2024-04-30T14:02:00.411Z,26.60
2024-04-30T14:04:03.514Z,26.40
2024-04-30T14:06:10.287Z,26.50
2024-04-30T14:08:15.855Z,26.00
2024-04-30T14:10:21.658Z,26.10
2024-04-30T14:12:24.587Z,25.90
2024-04-30T14:14:30.225Z,25.70
2024-04-30T14:16:33.417Z,25.80
2024-04-30T14:18:39.770Z,26.00
2024-04-30T14:20:42.716Z,26.20
2024-04-30T14:22:48.579Z,25.80
2024-04-30T14:24:54.257Z,25.40
2024-04-30T14:27:00.272Z,25.10
2024-04-30T14:29:04.002Z,25.30
2024-04-30T14:31:11.676Z,25.90
2024-04-30T14:33:16.085Z,25.90
2024-04-30T14:35:22.026Z,26.00
2024-04-30T14:37:25.024Z,25.70
2024-04-30T14:39:30.693Z,25.50
2024-04-30T14:41:36.456Z,25.10
2024-04-30T14:43:42.294Z,25.10
2024-04-30T14:45:45.190Z,25.40
2024-04-30T14:47:50.943Z,25.40
2024-04-30T14:49:54.218Z,25.50
2024-04-30T14:51:59.949Z,25.60
2024-04-30T14:54:02.931Z,25.80
2024-04-30T14:56:09.067Z,25.30
2024-04-30T14:58:14.929Z,25.20
2024-04-30T15:00:21.407Z,25.00
2024-04-30T15:02:24.297Z,24.90
2024-04-30T15:04:32.542Z,25.00
2024-04-30T15:06:35.587Z,24.90
2024-04-30T15:08:43.859Z,24.90
2024-04-30T15:10:46.799Z,24.90
2024-04-30T15:12:52.691Z,24.80
2024-04-30T15:14:58.481Z,24.90
2024-04-30T15:17:04.153Z,25.00
2024-04-30T15:19:07.235Z,25.10
2024-04-30T15:21:13.357Z,24.70
2024-04-30T15:23:16.257Z,24.90
2024-04-30T15:25:21.984Z,24.90
2024-04-30T15:27:25.050Z,24.80
2024-04-30T15:29:30.615Z,24.90
2024-04-30T15:31:36.405Z,25.00
2024-04-30T15:33:42.229Z,24.70
2024-04-30T15:35:45.188Z,24.70
2024-04-30T15:37:50.904Z,24.40
2024-04-30T15:39:53.768Z,24.10
2024-04-30T15:41:59.582Z,23.60
2024-04-30T15:44:02.624Z,23.50
2024-04-30T15:46:08.443Z,23.20
2024-04-30T15:48:14.126Z,23.10
2024-04-30T15:50:19.779Z,23.20
2024-04-30T15:52:23.858Z,22.90
2024-04-30T15:54:29.758Z,23.00
2024-04-30T15:56:34.609Z,23.00
2024-04-30T15:58:41.809Z,23.00
2024-04-30T16:00:44.744Z,23.00
2024-04-30T16:02:51.343Z,23.10
2024-04-30T16:04:57.026Z,23.10
2024-04-30T16:07:03.054Z,23.20
2024-04-30T16:09:06.003Z,23.30
2024-04-30T16:11:12.437Z,23.40
2024-04-30T16:13:15.469Z,23.40
2024-04-30T16:15:21.049Z,23.30
2024-04-30T16:17:24.068Z,23.20
2024-04-30T16:19:29.971Z,23.00
2024-04-30T16:21:35.657Z,22.80
2024-04-30T16:23:42.487Z,22.70
2024-04-30T16:25:45.496Z,22.60
2024-04-30T16:27:51.256Z,22.50
2024-04-30T16:29:59.727Z,22.40
2024-04-30T16:32:05.393Z,22.20
2024-04-30T16:34:09.048Z,22.20
2024-04-30T16:36:23.940Z,22.00
2024-04-30T16:38:30.455Z,22.00
2024-04-30T16:40:36.013Z,21.90
2024-04-30T16:42:39.005Z,21.80
2024-04-30T16:44:48.433Z,21.60
2024-04-30T16:46:51.874Z,21.30
2024-04-30T16:48:58.800Z,21.30
2024-04-30T16:51:01.849Z,21.20
2024-04-30T16:53:07.962Z,21.10
2024-04-30T16:55:13.900Z,21.00
2024-04-30T16:57:19.839Z,20.70
2024-04-30T16:59:22.828Z,20.60
2024-04-30T17:01:28.646Z,20.30
2024-04-30T17:03:31.647Z,20.20
2024-04-30T17:05:37.403Z,20.10
2024-04-30T17:07:40.473Z,19.90
2024-04-30T17:09:46.281Z,20.00
2024-04-30T17:11:51.946Z,19.90
2024-04-30T17:13:57.515Z,20.00
2024-04-30T17:16:02.242Z,20.00
2024-04-30T17:18:08.567Z,19.90
2024-04-30T17:20:11.693Z,19.90
2024-04-30T17:22:17.431Z,19.90
2024-04-30T17:24:21.915Z,19.80
2024-04-30T17:26:27.855Z,19.70
2024-04-30T17:28:35.116Z,19.80
2024-04-30T17:30:40.671Z,19.60
2024-04-30T17:32:43.936Z,19.50
2024-04-30T17:34:50.274Z,19.40
2024-04-30T17:36:53.206Z,19.30
2024-04-30T17:38:58.826Z,19.20
2024-04-30T17:41:01.897Z,19.10
2024-04-30T17:43:08.273Z,19.10
2024-04-30T17:45:13.982Z,18.90
2024-04-30T17:47:20.015Z,18.90
2024-04-30T17:49:23.025Z,18.90
2024-04-30T17:51:29.037Z,18.90
2024-04-30T17:53:31.951Z,18.80
2024-04-30T17:55:37.490Z,18.70
2024-04-30T17:57:40.555Z,18.50
2024-04-30T17:59:46.220Z,18.60
2024-04-30T18:01:51.817Z,18.50
2024-04-30T18:03:58.486Z,18.40
2024-04-30T18:06:01.665Z,18.60
2024-04-30T18:08:07.569Z,18.60
2024-04-30T18:10:13.392Z,18.50
2024-04-30T18:12:20.542Z,18.40
2024-04-30T18:14:23.741Z,18.30
2024-04-30T18:16:32.213Z,18.40
2024-04-30T18:18:37.903Z,18.30
2024-04-30T18:20:43.689Z,18.20
2024-04-30T18:22:46.490Z,18.30
2024-04-30T18:24:52.461Z,18.20
2024-04-30T18:26:55.340Z,18.40
2024-04-30T18:29:00.849Z,18.50
2024-04-30T18:31:04.095Z,18.40
2024-04-30T18:33:10.202Z,18.30
2024-04-30T18:35:16.039Z,18.50
2024-04-30T18:37:21.600Z,18.30
2024-04-30T18:39:24.491Z,18.20
2024-04-30T18:41:31.992Z,18.10
2024-04-30T18:43:35.071Z,18.20
2024-04-30T18:45:42.841Z,18.10
2024-04-30T18:47:46.293Z,18.20
2024-04-30T18:49:51.933Z,18.10
2024-04-30T18:51:57.559Z,18.00
2024-04-30T18:54:03.321Z,17.90
2024-04-30T18:56:07.004Z,17.80
2024-04-30T18:58:12.844Z,17.80
2024-04-30T19:00:16.743Z,17.80
2024-04-30T19:02:22.721Z,17.80
2024-04-30T19:04:25.962Z,18.00
2024-04-30T19:06:32.018Z,18.30
2024-04-30T19:08:38.285Z,18.00
2024-04-30T19:10:44.260Z,18.00
2024-04-30T19:12:47.178Z,17.90
2024-04-30T19:14:52.891Z,18.00
2024-04-30T19:16:55.945Z,18.00
2024-04-30T19:19:01.826Z,17.80
2024-04-30T19:23:10.939Z,17.60
2024-04-30T19:25:16.592Z,17.50
2024-04-30T19:27:22.324Z,17.30
2024-04-30T19:29:26.349Z,17.30
2024-04-30T19:31:31.876Z,17.00
2024-04-30T19:33:38.529Z,16.90
2024-04-30T19:35:44.390Z,17.10
2024-04-30T19:37:47.374Z,16.90
2024-04-30T19:39:53.493Z,16.90
2024-04-30T19:41:59.224Z,16.70
2024-04-30T19:44:04.662Z,16.60
2024-04-30T19:46:10.286Z,16.40
2024-04-30T19:50:23.246Z,16.00
2024-04-30T19:54:32.017Z,16.10
2024-04-30T19:56:37.848Z,16.50
2024-04-30T19:58:46.065Z,16.50
2024-04-30T20:00:55.877Z,17.30
2024-04-30T20:02:59.437Z,16.80
2024-04-30T20:05:05.214Z,16.30
2024-04-30T20:07:08.156Z,16.20
2024-04-30T20:09:14.613Z,16.10
2024-04-30T20:11:18.110Z,15.90
2024-04-30T20:13:24.397Z,15.70
2024-04-30T20:15:30.252Z,15.60
2024-04-30T20:17:35.964Z,15.60
2024-04-30T20:21:44.949Z,16.00
2024-04-30T20:53:52.613Z,14.30
2024-04-30T20:58:01.704Z,14.40
2024-04-30T21:02:10.772Z,13.90
2024-04-30T21:06:22.099Z,13.70
2024-04-30T21:08:27.825Z,13.70
2024-04-30T21:10:30.890Z,13.70
2024-04-30T21:12:36.800Z,13.70
2024-04-30T21:14:40.214Z,13.70
2024-04-30T21:16:45.912Z,13.70
2024-04-30T21:18:49.057Z,13.80
2024-04-30T21:20:57.641Z,13.70
2024-04-30T21:23:00.580Z,13.70
2024-04-30T21:25:06.234Z,13.70
2024-04-30T21:27:09.236Z,13.70
2024-04-30T21:29:14.860Z,13.70
2024-04-30T21:31:20.188Z,13.70
2024-04-30T21:33:25.827Z,13.80
2024-04-30T21:35:29.231Z,13.80
2024-04-30T21:37:37.437Z,13.80
2024-04-30T21:39:40.486Z,13.80
2024-04-30T21:41:46.060Z,13.80
2024-04-30T21:43:49.206Z,13.60
2024-04-30T21:45:54.875Z,13.50
2024-04-30T21:47:57.821Z,13.40
2024-04-30T21:50:03.705Z,13.40
2024-04-30T21:52:07.297Z,13.40
2024-04-30T21:54:15.918Z,13.20
2024-04-30T21:56:19.055Z,13.10
2024-04-30T21:58:24.654Z,13.10
2024-04-30T22:00:28.111Z,13.20
2024-04-30T22:02:36.005Z,13.20
2024-04-30T22:06:51.402Z,12.90
2024-04-30T22:08:54.354Z,12.90
2024-04-30T22:11:02.742Z,12.80
2024-04-30T22:13:06.057Z,12.90
2024-04-30T22:15:11.861Z,12.90
2024-04-30T22:17:14.693Z,12.90
2024-04-30T22:19:20.675Z,12.70
2024-04-30T22:21:25.440Z,12.70
2024-04-30T22:23:34.036Z,12.50
2024-04-30T22:25:36.936Z,12.50
2024-04-30T22:27:45.117Z,12.50
2024-04-30T22:29:52.448Z,12.50
2024-04-30T22:32:00.643Z,12.40
2024-04-30T22:34:03.654Z,12.30
2024-04-30T22:36:10.090Z,12.40
2024-04-30T22:42:22.200Z,12.10
2024-04-30T22:44:30.710Z,12.10
2024-04-30T22:46:33.684Z,12.20
2024-04-30T22:48:39.341Z,12.30
2024-04-30T23:15:43.494Z,11.70
2024-04-30T23:17:52.137Z,11.70
2024-04-30T23:19:55.199Z,11.60
2024-04-30T23:32:23.079Z,11.40
2024-04-30T23:34:31.565Z,11.40
2024-04-30T23:36:34.578Z,11.30
2024-04-30T23:38:41.969Z,11.20
2024-04-30T23:42:50.865Z,11.20
2024-04-30T23:55:26.205Z,11.00
2024-04-30T23:57:29.316Z,11.00
2024-04-30T23:59:35.102Z,11.00
